Time;durP1;ratioP1;P1;durP2;ratioP2;P2;SDS_P1;SDS_P2;PMS_P1;PMS_P2;Temp;Humidity;BMP_temperature;BMP_pressure;BME280_temperature;BME280_humidity;BME280_pressure;Samples;Min_cycle;Max_cycle;Signal;HPM_P1;HPM_P2
2022/04/17 00:02:22;;;;;;;153.50;85.67;;;;;;;6.91;100.00;103322.03;4978241;28;20212;-66
2022/04/17 00:04:48;;;;;;;182.53;94.90;;;;;;;7.13;100.00;103331.13;4978867;28;20524;-66
2022/04/17 00:07:13;;;;;;;230.13;109.10;;;;;;;7.00;100.00;103325.84;4978328;28;20889;-66
2022/04/17 00:09:38;;;;;;;245.47;117.10;;;;;;;6.72;100.00;103289.72;4976165;28;20212;-66
2022/04/17 00:12:05;;;;;;;233.23;113.10;;;;;;;7.09;100.00;103316.31;4973951;28;20246;-65
2022/04/17 00:14:30;;;;;;;229.57;113.33;;;;;;;7.12;100.00;103332.97;4978551;28;20205;-66
2022/04/17 00:16:55;;;;;;;217.40;111.93;;;;;;;6.91;100.00;103337.22;4979553;28;20443;-65
2022/04/17 00:19:22;;;;;;;242.93;115.70;;;;;;;7.11;100.00;103335.72;4977181;28;20197;-66
2022/04/17 00:21:49;;;;;;;265.13;124.63;;;;;;;7.20;100.00;103338.59;4976975;28;20250;-66
2022/04/17 00:24:15;;;;;;;257.27;121.07;;;;;;;7.70;100.00;103325.84;4978110;28;20446;-65
2022/04/17 00:26:40;;;;;;;263.23;119.90;;;;;;;7.41;100.00;103320.06;4979018;28;20445;-66
2022/04/17 00:29:06;;;;;;;243.33;117.10;;;;;;;7.31;100.00;103324.41;4973855;28;20480;-65
2022/04/17 00:31:31;;;;;;;259.20;121.30;;;;;;;7.25;100.00;103322.19;4977650;28;20189;-65
2022/04/17 00:33:57;;;;;;;228.67;113.10;;;;;;;7.34;100.00;103317.97;4979850;28;20190;-66
2022/04/17 00:36:22;;;;;;;184.63;88.73;;;;;;;7.32;100.00;103315.44;4979216;28;20193;-66
2022/04/17 00:38:47;;;;;;;137.90;73.97;;;;;;;6.83;100.00;103289.78;4963882;28;20225;-65
2022/04/17 00:41:13;;;;;;;113.80;69.00;;;;;;;6.46;100.00;103281.81;4984357;28;20174;-65
2022/04/17 00:43:48;;;;;;;96.13;57.77;;;;;;;6.90;100.00;103325.69;4975873;28;20218;-65
2022/04/17 00:46:14;;;;;;;87.33;56.17;;;;;;;6.68;100.00;103269.56;4979663;28;20553;-65
2022/04/17 00:48:40;;;;;;;87.97;53.60;;;;;;;6.40;100.00;103319.59;4979027;28;20542;-65
2022/04/17 00:51:06;;;;;;;88.30;53.20;;;;;;;6.70;100.00;103318.31;4980586;28;20456;-66
2022/04/17 00:53:33;;;;;;;85.43;52.33;;;;;;;6.67;100.00;103265.19;4979300;28;20809;-65
2022/04/17 00:55:59;;;;;;;82.07;52.00;;;;;;;6.51;100.00;103317.00;4980635;28;20564;-65
2022/04/17 00:58:26;;;;;;;88.93;53.93;;;;;;;6.64;100.00;103321.44;4976824;28;20527;-65
2022/04/17 01:00:51;;;;;;;91.87;54.03;;;;;;;6.40;100.00;103314.25;4971858;28;20251;-66
2022/04/17 01:03:17;;;;;;;89.20;52.10;;;;;;;6.49;100.00;103310.06;4974542;28;20472;-65
2022/04/17 01:05:44;;;;;;;85.47;53.43;;;;;;;6.55;100.00;103312.28;4975005;28;20183;-65
2022/04/17 01:08:10;;;;;;;91.17;51.73;;;;;;;5.85;100.00;103319.00;4979164;28;20485;-65
2022/04/17 01:10:36;;;;;;;83.57;47.93;;;;;;;6.00;100.00;103324.25;4980594;28;20451;-66
2022/04/17 01:13:06;;;;;;;77.10;47.03;;;;;;;5.94;100.00;103328.19;4975583;28;21025;-65
2022/04/17 01:15:32;;;;;;;77.23;49.37;;;;;;;5.88;100.00;103280.63;4976425;28;20300;-65
2022/04/17 01:17:59;;;;;;;81.23;51.03;;;;;;;6.16;100.00;103316.00;4979340;28;20522;-65
2022/04/17 01:20:24;;;;;;;70.13;45.23;;;;;;;5.67;100.00;103296.31;4977739;28;20445;-65
2022/04/17 01:22:51;;;;;;;74.63;46.30;;;;;;;5.91;100.00;103325.69;4977931;28;20853;-65
2022/04/17 01:28:05;;;;;;;75.40;45.00;;;;;;;5.55;100.00;103251.88;4979294;28;20439;-65
2022/04/17 01:30:31;;;;;;;76.90;45.07;;;;;;;5.87;100.00;103316.19;4975428;28;20992;-66
2022/04/17 01:32:56;;;;;;;76.83;43.70;;;;;;;5.94;100.00;103312.19;4976850;28;20480;-65
2022/04/17 01:35:22;;;;;;;74.50;45.30;;;;;;;6.00;100.00;103298.44;4975404;28;20767;-65
2022/04/17 01:37:48;;;;;;;77.33;47.77;;;;;;;6.30;100.00;103308.72;4977958;28;20229;-65
2022/04/17 01:40:13;;;;;;;71.63;44.57;;;;;;;5.93;100.00;103313.16;4976110;28;20212;-65
2022/04/17 01:42:39;;;;;;;74.67;44.53;;;;;;;5.64;100.00;103288.50;4978248;28;20465;-65
2022/04/17 01:45:04;;;;;;;75.70;45.97;;;;;;;5.90;100.00;103310.66;4978473;28;20265;-65
2022/04/17 01:47:30;;;;;;;75.00;44.40;;;;;;;5.94;100.00;103311.34;4976082;28;20209;-65
2022/04/17 01:49:56;;;;;;;71.23;45.63;;;;;;;5.62;100.00;103277.97;4978232;28;20959;-65
2022/04/17 01:52:21;;;;;;;81.43;46.00;;;;;;;5.75;100.00;103295.75;4983499;28;20220;-66
2022/04/17 01:54:47;;;;;;;72.60;44.80;;;;;;;5.94;100.00;103303.38;4981984;28;20253;-66
2022/04/17 01:57:12;;;;;;;70.13;44.50;;;;;;;5.86;100.00;103288.72;4959709;28;20193;-67
2022/04/17 01:59:38;;;;;;;66.50;41.83;;;;;;;5.74;100.00;103284.25;4975478;28;20194;-67
2022/04/17 02:02:03;;;;;;;70.53;43.63;;;;;;;6.13;100.00;103295.75;4965531;28;20296;-66
2022/04/17 02:04:35;;;;;;;68.33;42.27;;;;;;;5.94;100.00;103287.38;4978175;28;20197;-66
2022/04/17 02:07:00;;;;;;;71.67;43.40;;;;;;;5.47;100.00;103265.75;4977346;28;20176;-66
2022/04/17 02:09:25;;;;;;;69.60;42.90;;;;;;;5.49;100.00;103228.34;4981153;28;20818;-66
2022/04/17 02:11:53;;;;;;;64.57;40.83;;;;;;;6.00;100.00;103289.59;4975078;28;20347;-66
2022/04/17 02:14:19;;;;;;;71.63;40.80;;;;;;;5.60;100.00;103279.88;4982405;28;20642;-67
2022/04/17 02:16:45;;;;;;;68.40;41.00;;;;;;;5.56;100.00;103283.75;4974352;28;20535;-66
2022/04/17 02:19:11;;;;;;;60.93;40.23;;;;;;;5.72;100.00;103282.66;4977917;28;20445;-66
2022/04/17 02:21:37;;;;;;;63.60;40.63;;;;;;;5.28;100.00;103270.63;4975908;28;20997;-66
2022/04/17 02:24:02;;;;;;;64.73;38.70;;;;;;;5.32;100.00;103280.97;4961969;28;20651;-66
2022/04/17 02:26:28;;;;;;;59.80;38.43;;;;;;;5.52;100.00;103279.56;4977214;28;20196;-67
2022/04/17 02:28:56;;;;;;;55.03;35.97;;;;;;;5.70;100.00;103284.56;4977885;28;20580;-66
2022/04/17 02:31:22;;;;;;;60.07;35.93;;;;;;;5.75;100.00;103285.09;4977849;28;20192;-66
2022/04/17 02:33:47;;;;;;;62.63;36.23;;;;;;;5.52;100.00;103233.47;4972793;28;20484;-66
2022/04/17 02:36:12;;;;;;;52.30;34.13;;;;;;;6.10;100.00;103280.84;4973762;28;20834;-66
2022/04/17 02:38:38;;;;;;;53.73;32.90;;;;;;;5.53;100.00;103254.66;4975867;28;20202;-66
2022/04/17 02:41:04;;;;;;;55.47;32.00;;;;;;;5.64;100.00;103241.47;4976304;28;20190;-66
2022/04/17 02:43:29;;;;;;;49.43;32.13;;;;;;;5.73;100.00;103273.69;4977897;28;20202;-67
2022/04/17 02:45:55;;;;;;;47.57;29.53;;;;;;;5.69;100.00;103274.88;4973892;28;20698;-66
2022/04/17 02:48:20;;;;;;;45.77;29.43;;;;;;;5.75;100.00;103277.97;4963396;28;20225;-66
2022/04/17 02:50:49;;;;;;;46.63;29.30;;;;;;;5.91;100.00;103247.59;4976065;28;20201;-66
2022/04/17 02:53:16;;;;;;;51.53;31.03;;;;;;;6.03;100.00;103271.59;4978396;23;20260;-68
2022/04/17 02:55:42;;;;;;;51.53;30.77;;;;;;;6.21;100.00;103269.41;4960621;28;21050;-68
2022/04/17 02:58:07;;;;;;;49.67;30.17;;;;;;;5.89;100.00;103280.50;4958952;28;20448;-68
2022/04/17 03:05:35;;;;;;;46.27;31.20;;;;;;;5.84;100.00;103233.84;4957877;28;20190;-68
2022/04/17 03:06:02;;;;;;;47.60;29.90;;;;;;;6.02;100.00;103264.56;4961541;28;20820;-68
2022/04/17 03:08:28;;;;;;;44.57;28.43;;;;;;;6.20;100.00;103265.03;4958208;28;20445;-68
2022/04/17 03:10:54;;;;;;;46.90;29.70;;;;;;;6.13;100.00;103255.78;4943953;28;20197;-68
2022/04/17 03:13:19;;;;;;;44.20;29.53;;;;;;;6.08;100.00;103263.28;4956727;28;20846;-68
2022/04/17 03:15:44;;;;;;;53.63;30.13;;;;;;;5.53;100.00;103269.78;4957873;28;20516;-68
2022/04/17 03:18:10;;;;;;;69.30;37.10;;;;;;;5.77;100.00;103267.22;4960654;28;20215;-68
2022/04/17 03:20:36;;;;;;;73.43;35.43;;;;;;;5.36;100.00;103271.78;4958347;28;26147;-68
2022/04/17 03:23:02;;;;;;;60.60;33.37;;;;;;;5.66;100.00;103249.31;4964885;28;20622;-68
2022/04/17 03:25:29;;;;;;;47.10;29.13;;;;;;;5.46;100.00;103271.16;4966306;28;20206;-68
2022/04/17 03:27:55;;;;;;;56.10;32.83;;;;;;;5.43;100.00;103272.22;4961556;28;21247;-68
2022/04/17 03:30:20;;;;;;;58.87;32.43;;;;;;;5.42;100.00;103273.19;4962651;28;20549;-68
2022/04/17 03:32:49;;;;;;;68.90;37.63;;;;;;;5.51;100.00;103259.22;4964926;28;20689;-68
2022/04/17 03:35:17;;;;;;;96.40;44.20;;;;;;;5.01;100.00;103242.28;4961989;28;20263;-68
2022/04/17 03:37:43;;;;;;;83.43;42.03;;;;;;;5.46;100.00;103271.16;4964400;28;20445;-68
2022/04/17 03:40:10;;;;;;;74.50;37.07;;;;;;;5.86;100.00;103266.56;4963527;28;20452;-68
2022/04/17 03:42:36;;;;;;;78.57;38.20;;;;;;;5.53;100.00;103275.97;4964733;28;20210;-68
2022/04/17 03:45:06;;;;;;;73.73;37.10;;;;;;;5.64;100.00;103275.19;4962355;28;20446;-68
2022/04/17 03:47:35;;;;;;;60.77;33.37;;;;;;;5.75;100.00;103255.81;4932270;28;20437;-68
2022/04/17 03:50:03;;;;;;;56.20;32.40;;;;;;;5.36;100.00;103249.66;4964309;28;20499;-68
2022/04/17 03:52:38;;;;;;;67.87;35.93;;;;;;;5.39;100.00;103258.28;4965644;28;20561;-68
2022/04/17 03:55:04;;;;;;;86.83;42.10;;;;;;;5.28;100.00;103275.94;4963409;28;20465;-68
2022/04/17 03:57:29;;;;;;;100.90;46.93;;;;;;;5.44;100.00;103240.19;4966475;28;20973;-68
2022/04/17 03:59:54;;;;;;;112.17;45.80;;;;;;;5.34;100.00;103254.22;4943881;28;20437;-68
2022/04/17 04:02:20;;;;;;;104.37;46.83;;;;;;;5.19;100.00;103259.63;4962842;28;20889;-68
2022/04/17 04:04:46;;;;;;;92.93;43.50;;;;;;;5.49;100.00;103263.81;4962855;28;20194;-67
2022/04/17 04:07:11;;;;;;;95.93;41.30;;;;;;;5.20;100.00;103257.81;4964253;28;20205;-68
2022/04/17 04:09:36;;;;;;;80.20;37.77;;;;;;;5.76;100.00;103261.03;4941979;28;20586;-68
2022/04/17 04:12:02;;;;;;;64.93;35.10;;;;;;;5.50;100.00;103256.69;4964534;28;20269;-68
2022/04/17 04:14:27;;;;;;;51.43;29.83;;;;;;;5.64;100.00;103259.22;4960090;28;20220;-68
2022/04/17 04:16:53;;;;;;;46.80;29.93;;;;;;;5.32;100.00;103262.34;4962831;28;20186;-68
2022/04/17 04:19:18;;;;;;;43.20;27.83;;;;;;;5.27;100.00;103211.22;4961641;28;20190;-68
2022/04/17 04:21:49;;;;;;;44.60;28.93;;;;;;;5.78;100.00;103252.94;4944520;28;20192;-68
2022/04/17 04:24:17;;;;;;;45.77;29.07;;;;;;;5.48;100.00;103240.81;4961021;28;20264;-68
2022/04/17 04:26:43;;;;;;;42.80;28.20;;;;;;;5.39;100.00;103230.81;4962471;28;20437;-68
2022/04/17 04:29:08;;;;;;;43.83;27.63;;;;;;;5.73;100.00;103250.63;4948572;28;20476;-68
2022/04/17 04:31:34;;;;;;;39.60;28.93;;;;;;;5.18;100.00;103236.66;4964127;28;20649;-68
2022/04/17 04:33:59;;;;;;;38.80;26.07;;;;;;;5.59;100.00;103224.94;4961496;28;20282;-68
2022/04/17 04:36:24;;;;;;;42.53;26.80;;;;;;;5.47;100.00;103233.81;4962523;28;21054;-68
2022/04/17 04:38:50;;;;;;;40.30;26.77;;;;;;;5.71;100.00;103247.19;4964115;28;21162;-68
2022/04/17 04:41:15;;;;;;;41.53;27.37;;;;;;;5.20;100.00;103212.59;4963817;28;20292;-68
2022/04/17 04:43:41;;;;;;;44.70;28.40;;;;;;;5.06;100.00;103199.38;4942819;28;20234;-68
2022/04/17 04:46:06;;;;;;;43.97;27.17;;;;;;;5.24;100.00;103250.50;4960515;28;20195;-68
2022/04/17 04:51:17;;;;;;;42.40;26.07;;;;;;;5.19;100.00;103222.38;4963779;28;20254;-68
2022/04/17 04:53:42;;;;;;;43.53;25.70;;;;;;;5.23;100.00;103241.66;4962096;28;20564;-68
2022/04/17 04:56:08;;;;;;;42.53;27.23;;;;;;;4.76;100.00;103248.38;4963174;28;20210;-68
2022/04/17 04:58:34;;;;;;;43.07;28.00;;;;;;;5.34;100.00;103228.44;4960420;28;20221;-68
2022/04/17 05:00:59;;;;;;;45.30;27.60;;;;;;;5.44;100.00;103232.19;4958679;28;20321;-68
2022/04/17 05:03:25;;;;;;;41.53;27.13;;;;;;;4.89;100.00;103251.03;4962286;28;20809;-68
2022/04/17 05:05:51;;;;;;;47.57;28.50;;;;;;;4.81;100.00;103248.06;4940277;28;20198;-68
2022/04/17 05:08:16;;;;;;;48.30;28.40;;;;;;;4.73;100.00;103246.75;4963197;28;20194;-68
2022/04/17 05:10:42;;;;;;;44.10;27.93;;;;;;;5.00;100.00;103248.53;4948497;28;20449;-68
2022/04/17 05:13:08;;;;;;;51.97;29.50;;;;;;;5.08;100.00;103246.19;4963092;28;20217;-68
2022/04/17 05:15:33;;;;;;;52.23;28.53;;;;;;;5.04;100.00;103201.31;4959635;28;20301;-68
2022/04/17 05:17:59;;;;;;;52.43;27.83;;;;;;;5.34;100.00;103244.41;4961289;28;21043;-68
2022/04/17 05:20:26;;;;;;;60.07;30.90;;;;;;;5.44;100.00;103218.03;4944603;28;20197;-68
2022/04/17 05:23:03;;;;;;;74.50;35.17;;;;;;;5.40;100.00;103232.50;4961327;28;20237;-68
2022/04/17 05:25:29;;;;;;;74.33;36.27;;;;;;;5.28;100.00;103242.19;4961840;28;20471;-68
2022/04/17 05:27:54;;;;;;;88.80;41.70;;;;;;;5.35;100.00;103239.94;4961086;28;20553;-68
2022/04/17 05:30:20;;;;;;;96.83;43.80;;;;;;;5.50;100.00;103246.91;4940836;28;20282;-68
2022/04/17 05:32:45;;;;;;;92.13;46.90;;;;;;;5.52;100.00;103244.94;4962169;28;20692;-68
2022/04/17 05:35:11;;;;;;;88.80;41.60;;;;;;;5.37;100.00;103246.03;4963619;28;20211;-68
2022/04/17 05:37:36;;;;;;;99.17;43.40;;;;;;;5.54;100.00;103248.38;4961654;28;20244;-68
2022/04/17 05:40:02;;;;;;;111.47;47.90;;;;;;;5.56;100.00;103246.47;4963208;28;20202;-68
2022/04/17 05:42:28;;;;;;;124.87;55.50;;;;;;;5.41;100.00;103223.59;4963351;28;20857;-68
2022/04/17 05:44:54;;;;;;;117.30;52.80;;;;;;;5.59;100.00;103232.94;4960203;28;20190;-68
2022/04/17 05:47:19;;;;;;;98.10;47.27;;;;;;;5.69;100.00;103241.13;4959163;28;20452;-68
2022/04/17 05:49:45;;;;;;;67.20;35.60;;;;;;;5.74;100.00;103244.31;4964351;28;20697;-68
2022/04/17 05:52:12;;;;;;;51.03;29.40;;;;;;;5.75;100.00;103242.50;4963153;28;20581;-68
2022/04/17 05:54:43;;;;;;;44.03;27.30;;;;;;;5.76;100.00;103245.06;4959840;28;20222;-68
2022/04/17 05:57:09;;;;;;;47.17;27.50;;;;;;;5.69;100.00;103224.28;4961319;28;20437;-68
2022/04/17 05:59:36;;;;;;;47.03;27.83;;;;;;;6.11;100.00;103247.91;4966193;28;20445;-68
2022/04/17 06:02:01;;;;;;;53.10;30.53;;;;;;;5.96;100.00;103243.69;4965283;28;20600;-68
2022/04/17 06:04:26;;;;;;;41.20;24.67;;;;;;;5.87;100.00;103221.19;4965211;28;20873;-68
2022/04/17 06:06:52;;;;;;;43.53;24.93;;;;;;;6.24;100.00;103239.00;4966027;28;20191;-68
2022/04/17 06:09:17;;;;;;;48.50;27.10;;;;;;;6.26;100.00;103205.97;4964697;28;20317;-68
2022/04/17 06:11:42;;;;;;;35.60;23.17;;;;;;;6.23;100.00;103216.00;4965883;28;20617;-68
2022/04/17 06:14:08;;;;;;;37.17;23.47;;;;;;;6.27;100.00;103214.81;4963892;28;20590;-68
2022/04/17 06:16:33;;;;;;;42.63;24.27;;;;;;;6.49;100.00;103225.59;4962092;28;20201;-68
2022/04/17 06:18:59;;;;;;;61.03;28.27;;;;;;;6.44;100.00;103200.25;4961195;28;20202;-68
2022/04/17 06:21:24;;;;;;;58.30;29.97;;;;;;;6.50;100.00;103232.63;4960528;28;20186;-68
2022/04/17 06:23:49;;;;;;;55.77;28.60;;;;;;;6.79;100.00;103229.59;4963097;28;20202;-68
2022/04/17 06:26:15;;;;;;;51.90;29.57;;;;;;;6.73;100.00;103222.91;4961621;28;20206;-68
2022/04/17 06:28:40;;;;;;;53.87;28.87;;;;;;;6.83;100.00;103215.09;4962194;28;20228;-68
2022/04/17 06:31:07;;;;;;;53.90;29.13;;;;;;;7.09;100.00;103214.88;4961559;28;20916;-69
2022/04/17 06:33:33;;;;;;;59.80;31.30;;;;;;;7.25;100.00;103215.41;4964925;28;20301;-69
2022/04/17 06:35:58;;;;;;;58.57;28.17;;;;;;;7.20;100.00;103209.56;4957553;28;20880;-69
2022/04/17 06:38:23;;;;;;;43.07;24.13;;;;;;;6.94;100.00;103182.22;4960494;28;20241;-69
2022/04/17 06:40:49;;;;;;;41.23;23.10;;;;;;;7.28;100.00;103217.84;4945360;28;20285;-69
2022/04/17 06:43:14;;;;;;;46.80;25.00;;;;;;;7.35;100.00;103218.25;4959918;28;20755;-68
2022/04/17 06:45:40;;;;;;;45.17;23.83;;;;;;;7.32;100.00;103223.78;4959290;28;20646;-69
2022/04/17 06:48:17;;;;;;;38.23;22.40;;;;;;;7.40;100.00;103216.03;4957785;28;20182;-69
2022/04/17 06:50:47;;;;;;;38.03;21.57;;;;;;;7.47;100.00;103179.88;4955816;28;20521;-69
2022/04/17 06:53:12;;;;;;;36.87;21.37;;;;;;;7.71;100.00;103190.44;4944917;28;20889;-69
2022/04/17 06:55:38;;;;;;;41.73;21.30;;;;;;;7.79;100.00;103201.38;4964263;28;20470;-70
2022/04/17 06:58:05;;;;;;;32.13;20.47;;;;;;;7.78;100.00;103209.50;4960249;28;20201;-69
2022/04/17 07:00:30;;;;;;;35.07;19.50;;;;;;;7.99;100.00;103202.44;4963812;28;20441;-69
2022/04/17 07:02:56;;;;;;;32.23;20.20;;;;;;;7.64;100.00;103134.00;4937882;28;20454;-69
2022/04/17 07:05:21;;;;;;;29.70;18.80;;;;;;;8.02;100.00;103194.19;4959543;28;20183;-69
2022/04/17 07:07:56;;;;;;;38.77;22.47;;;;;;;8.07;100.00;103178.63;4949586;28;20273;-70
2022/04/17 07:10:22;;;;;;;41.87;21.90;;;;;;;8.41;100.00;103191.91;4956436;28;20182;-68
2022/04/17 07:12:47;;;;;;;32.80;21.27;;;;;;;8.28;100.00;103175.16;4961524;28;20480;-70
2022/04/17 07:15:12;;;;;;;40.50;22.30;;;;;;;8.41;100.00;103175.00;4958264;28;20796;-70
2022/04/17 07:17:39;;;;;;;37.03;21.87;;;;;;;8.20;100.00;103127.66;4958825;28;20265;-70
2022/04/17 07:20:07;;;;;;;31.47;17.97;;;;;;;8.62;100.00;103183.06;4954446;28;20274;-70
2022/04/17 07:22:37;;;;;;;28.13;18.13;;;;;;;8.68;100.00;103156.66;4944945;28;20865;-70
2022/04/17 07:25:04;;;;;;;27.17;16.90;;;;;;;8.73;100.00;103159.78;4960233;28;20430;-70
2022/04/17 07:27:44;;;;;;;19.10;13.63;;;;;;;8.90;100.00;103176.25;4957494;28;20446;-70
2022/04/17 07:30:17;;;;;;;23.97;14.03;;;;;;;9.04;100.00;103178.59;4960956;28;20449;-70
2022/04/17 07:32:44;;;;;;;19.80;13.67;;;;;;;8.99;100.00;103162.91;4959891;28;20468;-70
2022/04/17 07:35:11;;;;;;;24.13;14.40;;;;;;;9.24;100.00;103183.06;4961219;28;20960;-70
2022/04/17 07:37:37;;;;;;;16.17;11.50;;;;;;;9.03;100.00;103134.06;4959428;28;20932;-70
2022/04/17 07:40:10;;;;;;;17.17;11.00;;;;;;;9.19;100.00;103161.19;4959137;28;20535;-70
2022/04/17 07:42:36;;;;;;;15.90;10.33;;;;;;;9.45;100.00;103171.47;4961123;28;20261;-70
2022/04/17 07:45:02;;;;;;;21.57;11.93;;;;;;;9.36;100.00;103135.63;4959113;28;20445;-70
2022/04/17 07:47:28;;;;;;;16.40;10.00;;;;;;;9.54;100.00;103167.97;4956606;28;20201;-69
2022/04/17 07:49:53;;;;;;;16.13;10.83;;;;;;;9.68;100.00;103167.59;4962894;28;20186;-69
2022/04/17 07:52:19;;;;;;;16.37;10.07;;;;;;;9.68;100.00;103167.59;4956243;28;20183;-69
2022/04/17 07:54:44;;;;;;;14.93;10.07;;;;;;;9.64;100.00;103150.13;4961122;28;20685;-70
2022/04/17 07:57:14;;;;;;;13.80;10.40;;;;;;;9.09;100.00;103053.22;4960852;28;20182;-69
2022/04/17 07:59:40;;;;;;;15.23;10.03;;;;;;;9.90;100.00;103165.72;4959142;28;20464;-70
2022/04/17 08:02:11;;;;;;;12.53;8.50;;;;;;;10.04;100.00;103154.59;4954113;28;20441;-70
2022/04/17 08:04:40;;;;;;;11.90;8.30;;;;;;;10.00;100.00;103160.34;4959187;28;20460;-70
2022/04/17 08:07:06;;;;;;;10.33;7.40;;;;;;;10.05;100.00;103145.56;4954386;28;20446;-70
2022/04/17 08:09:31;;;;;;;10.53;8.00;;;;;;;10.04;100.00;103132.28;4955609;28;20449;-70
2022/04/17 08:11:56;;;;;;;13.10;8.90;;;;;;;10.33;100.00;103151.97;4955763;28;20787;-70
2022/04/17 08:14:22;;;;;;;12.83;9.00;;;;;;;10.03;100.00;103131.44;4957604;28;20305;-69
2022/04/17 08:16:47;;;;;;;12.43;8.50;;;;;;;10.28;100.00;103140.81;4961295;28;20269;-70
2022/04/17 08:19:12;;;;;;;10.00;7.47;;;;;;;10.22;100.00;103122.56;4959192;28;20187;-70
2022/04/17 08:21:40;;;;;;;12.03;7.73;;;;;;;10.39;100.00;103121.06;4964139;28;20187;-70
2022/04/17 08:24:05;;;;;;;13.30;8.77;;;;;;;10.48;100.00;103122.03;4963181;28;20210;-69
2022/04/17 08:26:31;;;;;;;9.43;7.47;;;;;;;10.28;100.00;103105.94;4961704;28;20444;-70
2022/04/17 08:28:56;;;;;;;10.60;7.73;;;;;;;10.39;100.00;103094.22;4964191;28;20217;-70
2022/04/17 08:31:21;;;;;;;9.13;6.80;;;;;;;10.76;100.00;103121.16;4960391;28;20584;-69
2022/04/17 08:33:47;;;;;;;9.30;6.40;;;;;;;10.52;100.00;103070.59;4959442;28;20473;-69
2022/04/17 08:36:12;;;;;;;9.97;7.60;;;;;;;10.78;100.00;103115.63;4951185;28;21192;-70
2022/04/17 08:38:38;;;;;;;9.10;6.60;;;;;;;10.74;100.00;103109.69;4939667;28;20237;-70
2022/04/17 08:41:05;;;;;;;7.60;6.60;;;;;;;10.77;100.00;103114.78;4960817;28;20194;-70
2022/04/17 08:43:32;;;;;;;8.13;6.13;;;;;;;10.91;100.00;103116.16;4958548;28;20611;-69
2022/04/17 08:45:57;;;;;;;8.00;5.83;;;;;;;10.95;100.00;103100.59;4958662;28;20441;-69
2022/04/17 08:48:22;;;;;;;8.30;6.20;;;;;;;10.91;100.00;103075.06;4959870;28;21529;-69
2022/04/17 08:50:51;;;;;;;8.93;5.97;;;;;;;11.06;100.00;103109.31;4958976;28;20226;-69
